createdAt,value
2022-11-03T00:02:35.454Z,5.30
2022-11-03T00:09:05.828Z,5.90
2022-11-03T00:12:11.991Z,5.80
2022-11-03T00:18:22.795Z,5.70
2022-11-03T00:24:33.484Z,5.30
2022-11-03T00:30:44.198Z,5.70
2022-11-03T00:36:55.270Z,6.50
2022-11-03T00:43:06.500Z,5.20
2022-11-03T00:46:13.452Z,5.90
2022-11-03T00:49:19.500Z,5.80
2022-11-03T00:52:25.677Z,5.90
2022-11-03T00:58:36.600Z,5.00
2022-11-03T01:01:47.162Z,5.00
2022-11-03T01:05:11.252Z,5.40
2022-11-03T01:08:17.396Z,5.60
2022-11-03T01:14:48.457Z,6.20
2022-11-03T01:17:54.532Z,6.00
2022-11-03T01:21:00.977Z,6.10
2022-11-03T01:24:07.796Z,4.90
2022-11-03T01:27:15.821Z,5.30
2022-11-03T01:30:21.935Z,5.40
2022-11-03T01:33:28.009Z,5.60
2022-11-03T01:36:34.239Z,6.20
2022-11-03T01:42:44.879Z,5.20
2022-11-03T01:45:54.527Z,5.30
2022-11-03T01:49:04.208Z,5.00
2022-11-03T01:52:15.258Z,5.00
2022-11-03T01:55:24.698Z,5.40
2022-11-03T01:58:34.844Z,5.90
2022-11-03T02:01:41.317Z,5.40
2022-11-03T02:04:48.451Z,5.70
2022-11-03T02:08:00.209Z,4.80
2022-11-03T02:11:27.047Z,5.00
2022-11-03T02:14:33.173Z,4.80
2022-11-03T02:17:41.212Z,5.40
2022-11-03T02:20:50.158Z,5.40
2022-11-03T02:24:04.219Z,5.20
2022-11-03T02:27:10.688Z,5.50
2022-11-03T02:30:16.885Z,5.10
2022-11-03T02:33:32.006Z,5.70
2022-11-03T02:36:43.494Z,5.70
2022-11-03T02:39:54.062Z,5.30
2022-11-03T02:43:02.473Z,5.30
2022-11-03T02:46:09.754Z,5.50
2022-11-03T02:49:15.801Z,5.20
2022-11-03T02:52:40.840Z,5.30
2022-11-03T02:55:55.396Z,5.70
2022-11-03T02:59:06.298Z,5.50
2022-11-03T03:02:29.077Z,5.20
2022-11-03T03:05:37.813Z,5.10
2022-11-03T03:08:49.653Z,5.50
2022-11-03T03:11:57.756Z,5.00
2022-11-03T03:15:07.318Z,5.20
2022-11-03T03:18:22.063Z,5.20
2022-11-03T03:21:33.949Z,5.10
2022-11-03T03:24:49.273Z,5.00
2022-11-03T03:28:02.275Z,5.20
2022-11-03T03:31:14.691Z,5.00
2022-11-03T03:34:34.562Z,5.40
2022-11-03T03:37:46.769Z,4.90
2022-11-03T03:40:56.947Z,5.20
2022-11-03T03:44:07.498Z,5.30
2022-11-03T03:47:19.294Z,5.20
2022-11-03T03:50:27.916Z,4.80
2022-11-03T03:53:34.159Z,5.40
2022-11-03T03:56:48.778Z,5.00
2022-11-03T03:59:55.006Z,5.00
2022-11-03T04:03:01.393Z,5.30
2022-11-03T04:09:12.136Z,5.10
2022-11-03T04:12:35.841Z,4.50
2022-11-03T04:15:59.407Z,4.80
2022-11-03T04:19:23.084Z,4.50
2022-11-03T04:22:31.912Z,4.50
2022-11-03T04:25:38.065Z,4.40
2022-11-03T04:28:44.850Z,5.40
2022-11-03T04:31:51.062Z,4.90
2022-11-03T04:34:57.296Z,4.30
2022-11-03T04:38:10.822Z,4.90
2022-11-03T04:41:19.513Z,5.10
2022-11-03T04:44:25.778Z,4.90
2022-11-03T04:47:33.215Z,5.20
2022-11-03T04:50:42.867Z,4.90
2022-11-03T04:53:56.436Z,4.80
2022-11-03T04:57:06.357Z,4.60
2022-11-03T05:00:18.366Z,5.30
2022-11-03T05:03:26.802Z,5.20
2022-11-03T05:06:32.889Z,5.10
2022-11-03T05:09:42.719Z,5.10
2022-11-03T05:12:50.349Z,5.60
2022-11-03T05:16:01.775Z,5.40
2022-11-03T05:19:14.279Z,5.20
2022-11-03T05:22:23.625Z,5.40
2022-11-03T05:25:43.618Z,6.10
2022-11-03T05:28:52.054Z,6.70
2022-11-03T05:31:59.033Z,5.50
2022-11-03T05:35:05.586Z,5.40
2022-11-03T05:38:17.255Z,6.00
2022-11-03T05:41:27.316Z,4.50
2022-11-03T05:44:37.110Z,5.40
2022-11-03T05:47:43.753Z,4.90
2022-11-03T05:50:49.897Z,4.80
2022-11-03T05:53:59.380Z,4.00
2022-11-03T05:57:09.803Z,4.70
2022-11-03T06:00:29.235Z,4.30
2022-11-03T06:03:38.905Z,4.30
2022-11-03T06:06:48.369Z,5.20
2022-11-03T06:09:55.174Z,4.70
2022-11-03T06:13:07.526Z,5.10
2022-11-03T06:16:33.498Z,5.60
2022-11-03T06:19:41.624Z,5.80
2022-11-03T06:22:48.664Z,6.30
2022-11-03T06:25:56.905Z,5.70
2022-11-03T06:29:03.154Z,6.50
2022-11-03T06:32:13.982Z,6.40
2022-11-03T06:35:21.215Z,6.40
2022-11-03T06:38:30.872Z,6.30
2022-11-03T06:41:39.991Z,6.20
2022-11-03T06:44:48.798Z,6.00
2022-11-03T06:47:55.691Z,6.30
2022-11-03T06:51:02.243Z,6.20
2022-11-03T06:54:12.946Z,5.90
2022-11-03T06:57:20.190Z,6.40
2022-11-03T07:00:37.762Z,6.40
2022-11-03T07:03:46.696Z,7.30
2022-11-03T07:06:53.842Z,7.00
2022-11-03T07:10:00.130Z,6.30
2022-11-03T07:13:15.015Z,6.90
2022-11-03T07:16:25.788Z,6.10
2022-11-03T07:19:36.142Z,6.20
2022-11-03T07:22:42.222Z,6.20
2022-11-03T07:25:51.140Z,7.00
2022-11-03T07:28:58.125Z,7.00
2022-11-03T07:32:11.566Z,9.00
2022-11-03T07:35:46.907Z,9.60
2022-11-03T07:39:01.280Z,9.80
2022-11-03T07:42:16.753Z,11.50
2022-11-03T07:45:41.176Z,10.60
2022-11-03T07:48:49.402Z,9.00
2022-11-03T07:51:56.647Z,10.30
2022-11-03T07:55:02.781Z,9.70
2022-11-03T07:58:22.501Z,8.10
2022-11-03T08:01:34.200Z,7.90
2022-11-03T08:04:40.620Z,7.70
2022-11-03T08:07:46.999Z,8.50
2022-11-03T08:13:58.017Z,9.00
2022-11-03T08:17:04.161Z,9.30
2022-11-03T08:20:11.713Z,10.40
2022-11-03T08:23:25.707Z,9.80
2022-11-03T08:26:32.914Z,10.20
2022-11-03T08:29:39.146Z,10.60
2022-11-03T08:32:45.511Z,10.40
2022-11-03T08:38:56.111Z,10.60
2022-11-03T08:42:02.364Z,10.40
2022-11-03T08:48:14.204Z,11.10
2022-11-03T08:54:25.098Z,11.60
2022-11-03T09:00:40.742Z,10.30
2022-11-03T09:03:47.509Z,8.90
2022-11-03T09:13:24.299Z,6.50
2022-11-03T09:16:30.492Z,6.50
2022-11-03T09:19:36.609Z,5.90
2022-11-03T09:22:42.762Z,5.70
2022-11-03T09:25:48.837Z,4.70
2022-11-03T09:28:54.971Z,5.30
2022-11-03T09:32:01.079Z,4.90
2022-11-03T09:35:09.091Z,4.50
2022-11-03T09:38:15.230Z,3.80
2022-11-03T09:41:27.688Z,3.40
2022-11-03T09:44:50.602Z,3.40
2022-11-03T09:47:57.554Z,3.50
2022-11-03T09:51:03.998Z,3.00
2022-11-03T09:54:13.325Z,3.10
2022-11-03T09:57:20.113Z,2.90
2022-11-03T10:00:27.495Z,3.10
2022-11-03T10:03:33.965Z,3.10
2022-11-03T10:06:40.293Z,3.00
2022-11-03T10:09:49.967Z,3.10
2022-11-03T10:12:56.514Z,3.10
2022-11-03T10:16:05.334Z,2.90
2022-11-03T10:19:15.305Z,3.20
2022-11-03T10:22:22.450Z,2.90
2022-11-03T10:25:40.163Z,3.00
2022-11-03T10:29:00.802Z,2.40
2022-11-03T10:32:27.090Z,3.00
2022-11-03T10:35:37.441Z,3.10
2022-11-03T10:38:44.436Z,3.30
2022-11-03T10:41:59.413Z,3.80
2022-11-03T10:45:18.227Z,5.40
2022-11-03T10:48:26.446Z,5.00
2022-11-03T10:51:32.738Z,4.80
2022-11-03T10:54:39.682Z,9.00
2022-11-03T10:57:50.539Z,4.80
2022-11-03T11:00:59.260Z,4.30
2022-11-03T11:07:25.089Z,5.40
2022-11-03T11:10:32.717Z,4.60
2022-11-03T11:13:38.764Z,5.10
2022-11-03T11:16:56.002Z,4.10
2022-11-03T11:20:35.688Z,4.60
2022-11-03T11:23:49.597Z,4.00
2022-11-03T11:26:55.868Z,4.90
2022-11-03T11:30:02.256Z,4.50
2022-11-03T11:33:23.691Z,4.20
2022-11-03T11:36:29.918Z,4.40
2022-11-03T11:39:49.462Z,4.40
2022-11-03T11:43:28.903Z,4.20
2022-11-03T11:46:42.515Z,4.10
2022-11-03T11:49:48.722Z,3.60
2022-11-03T11:52:59.825Z,3.60
2022-11-03T11:56:06.607Z,3.90
2022-11-03T11:59:24.616Z,4.30
2022-11-03T12:02:32.792Z,4.20
2022-11-03T12:05:39.145Z,4.30
2022-11-03T12:08:46.246Z,4.40
2022-11-03T12:11:55.613Z,4.10
2022-11-03T12:15:02.735Z,3.90
2022-11-03T12:18:36.424Z,4.10
2022-11-03T12:21:55.850Z,4.20
2022-11-03T12:25:04.238Z,4.00
2022-11-03T12:28:10.609Z,4.30
2022-11-03T12:31:16.788Z,5.20
2022-11-03T12:37:27.458Z,5.30
2022-11-03T12:40:33.531Z,4.50
2022-11-03T12:46:44.110Z,4.50
2022-11-03T12:52:54.803Z,4.50
2022-11-03T12:59:05.419Z,3.50
2022-11-03T13:05:17.909Z,3.60
2022-11-03T13:08:24.739Z,3.70
2022-11-03T13:11:48.607Z,3.60
2022-11-03T13:15:12.589Z,3.10
2022-11-03T13:18:19.168Z,3.60
2022-11-03T13:21:25.196Z,3.20
2022-11-03T13:27:35.980Z,3.70
2022-11-03T13:30:42.079Z,3.60
2022-11-03T13:36:52.742Z,3.20
2022-11-03T13:43:03.398Z,3.70
2022-11-03T13:46:09.699Z,3.50
2022-11-03T13:49:59.471Z,4.30
2022-11-03T13:52:42.344Z,3.70
2022-11-03T13:55:48.809Z,3.80
2022-11-03T14:05:47.778Z,4.50
2022-11-03T14:08:54.123Z,4.00
2022-11-03T14:12:18.189Z,4.40
2022-11-03T14:15:24.347Z,4.90
2022-11-03T14:18:30.477Z,5.10
2022-11-03T14:24:44.552Z,4.90
2022-11-03T14:27:50.865Z,4.40
2022-11-03T14:30:59.987Z,4.40
2022-11-03T14:34:06.254Z,5.00
2022-11-03T14:37:13.488Z,4.70
2022-11-03T14:40:33.631Z,5.20
2022-11-03T14:43:39.880Z,5.20
2022-11-03T14:46:45.887Z,10.50
2022-11-03T14:49:52.549Z,10.10
2022-11-03T14:52:59.975Z,7.10
2022-11-03T14:56:06.608Z,6.90
2022-11-03T14:59:12.729Z,6.80
2022-11-03T15:05:46.701Z,8.00
2022-11-03T15:08:56.358Z,8.10
2022-11-03T15:12:02.897Z,7.60
2022-11-03T15:18:15.326Z,7.90
2022-11-03T15:21:21.411Z,7.80
2022-11-03T15:27:53.706Z,8.30
2022-11-03T15:34:07.676Z,8.30
2022-11-03T15:37:15.758Z,9.20
2022-11-03T15:40:21.809Z,7.90
2022-11-03T15:43:27.854Z,13.70
2022-11-03T15:46:35.876Z,10.80
2022-11-03T15:49:42.070Z,11.20
2022-11-03T15:52:48.113Z,11.80
2022-11-03T15:55:54.267Z,12.90
2022-11-03T16:02:20.151Z,22.90
2022-11-03T16:05:30.990Z,20.80
2022-11-03T16:11:41.755Z,32.90
2022-11-03T16:17:52.353Z,106.90
2022-11-03T16:20:58.365Z,29.40
2022-11-03T16:24:04.524Z,71.70
2022-11-03T16:30:16.799Z,25.80
2022-11-03T16:33:23.013Z,36.60
2022-11-03T16:39:34.101Z,16.80
2022-11-03T16:42:40.134Z,12.80
2022-11-03T16:45:46.214Z,29.60
2022-11-03T16:48:52.287Z,14.90
2022-11-03T16:51:58.787Z,12.30
2022-11-03T16:55:05.373Z,10.80
2022-11-03T16:58:11.468Z,14.00
2022-11-03T17:01:17.604Z,10.60
2022-11-03T17:04:24.270Z,12.10
2022-11-03T17:07:30.438Z,13.50
2022-11-03T17:13:42.231Z,19.90
2022-11-03T17:19:53.401Z,25.70
2022-11-03T17:22:59.526Z,34.30
2022-11-03T17:26:06.473Z,34.20
2022-11-03T17:29:16.624Z,33.40
2022-11-03T17:32:26.706Z,33.20
2022-11-03T17:35:39.509Z,33.30
2022-11-03T17:38:46.049Z,31.50
2022-11-03T17:41:52.208Z,26.90
2022-11-03T17:44:59.499Z,19.70
2022-11-03T17:48:06.234Z,20.90
2022-11-03T17:51:13.834Z,19.30
2022-11-03T17:54:20.171Z,21.40
2022-11-03T18:00:31.270Z,22.60
2022-11-03T18:03:37.894Z,23.50
2022-11-03T18:06:45.646Z,26.10
2022-11-03T18:09:51.806Z,25.80
2022-11-03T18:13:19.888Z,22.10
2022-11-03T18:16:26.256Z,43.10
2022-11-03T18:19:33.446Z,41.20
2022-11-03T18:22:39.635Z,39.00
2022-11-03T18:25:46.196Z,29.00
2022-11-03T18:28:53.116Z,29.70
2022-11-03T18:32:01.186Z,27.90
2022-11-03T18:35:15.527Z,40.00
2022-11-03T18:38:23.353Z,31.90
2022-11-03T18:41:39.732Z,28.00
2022-11-03T18:44:46.821Z,33.40
2022-11-03T18:47:54.237Z,30.00
2022-11-03T18:51:00.336Z,33.10
2022-11-03T18:54:07.162Z,35.40
2022-11-03T18:57:14.553Z,35.30
2022-11-03T19:00:23.589Z,43.80
2022-11-03T19:03:30.490Z,33.80
2022-11-03T19:06:37.593Z,32.50
2022-11-03T19:09:44.982Z,34.60
2022-11-03T19:12:51.202Z,34.60
2022-11-03T19:15:58.209Z,36.00
2022-11-03T19:19:04.234Z,34.20
2022-11-03T19:22:14.398Z,43.00
2022-11-03T19:25:20.681Z,29.20
2022-11-03T19:31:35.777Z,31.70
2022-11-03T19:34:43.414Z,29.50
2022-11-03T19:37:51.165Z,32.30
2022-11-03T19:41:15.041Z,37.00
2022-11-03T19:44:21.101Z,35.80
2022-11-03T19:48:10.504Z,33.20
2022-11-03T19:51:15.579Z,36.20
2022-11-03T19:54:24.856Z,36.80
2022-11-03T19:57:31.100Z,31.20
2022-11-03T20:00:37.102Z,27.90
2022-11-03T20:03:43.347Z,27.10
2022-11-03T20:06:49.825Z,34.30
2022-11-03T20:09:56.120Z,35.70
2022-11-03T20:16:11.833Z,38.50
2022-11-03T20:19:17.920Z,37.80
2022-11-03T20:22:29.024Z,38.40
2022-11-03T20:25:37.246Z,39.80
2022-11-03T20:28:43.741Z,39.90
2022-11-03T20:31:49.952Z,38.80
2022-11-03T20:34:56.841Z,37.90
2022-11-03T20:38:03.133Z,37.50
2022-11-03T20:41:16.435Z,36.10
2022-11-03T20:44:23.965Z,28.10
2022-11-03T20:47:32.784Z,24.60
2022-11-03T20:50:39.516Z,30.70
2022-11-03T20:53:46.341Z,30.50
2022-11-03T20:56:52.421Z,28.00
2022-11-03T20:59:58.577Z,26.60
2022-11-03T21:03:21.078Z,23.10
2022-11-03T21:06:37.625Z,25.70
2022-11-03T21:09:44.220Z,25.60
2022-11-03T21:12:50.994Z,26.20
2022-11-03T21:16:24.133Z,29.60
2022-11-03T21:19:55.841Z,27.90
2022-11-03T21:23:01.974Z,24.90
2022-11-03T21:26:10.529Z,17.20
2022-11-03T21:29:27.513Z,18.60
2022-11-03T21:32:39.303Z,18.60
2022-11-03T21:35:46.826Z,21.40
2022-11-03T21:38:52.960Z,22.70
2022-11-03T21:42:17.789Z,30.20
2022-11-03T21:45:24.163Z,22.80
2022-11-03T21:51:52.325Z,15.10
2022-11-03T21:54:58.634Z,20.60
2022-11-03T22:01:11.244Z,11.20
2022-11-03T22:04:17.394Z,18.10
2022-11-03T22:07:24.046Z,22.60
2022-11-03T22:10:30.209Z,32.70
2022-11-03T22:13:36.298Z,28.60
2022-11-03T22:16:42.804Z,29.50
2022-11-03T22:20:06.777Z,36.00
2022-11-03T22:23:32.781Z,29.10
2022-11-03T22:27:00.069Z,23.30
2022-11-03T22:30:25.581Z,23.30
2022-11-03T22:33:51.816Z,15.00
2022-11-03T22:36:57.881Z,23.70
2022-11-03T22:40:21.758Z,25.30
2022-11-03T22:43:46.147Z,15.10
2022-11-03T22:46:52.173Z,15.10
2022-11-03T22:49:58.229Z,25.10
2022-11-03T22:53:24.403Z,23.90
2022-11-03T22:56:31.529Z,20.30
2022-11-03T22:59:37.597Z,16.50
2022-11-03T23:02:44.324Z,11.30
2022-11-03T23:05:50.491Z,13.70
2022-11-03T23:08:57.727Z,9.50
2022-11-03T23:12:03.929Z,8.80
2022-11-03T23:15:29.364Z,9.60
2022-11-03T23:18:53.035Z,9.00
2022-11-03T23:21:59.510Z,10.30
2022-11-03T23:25:05.993Z,22.00
2022-11-03T23:28:12.105Z,11.50
2022-11-03T23:31:18.508Z,11.10
2022-11-03T23:34:24.880Z,13.40
2022-11-03T23:40:36.305Z,8.40
2022-11-03T23:43:43.133Z,9.10
2022-11-03T23:47:06.636Z,9.70
2022-11-03T23:50:13.025Z,14.80
2022-11-03T23:56:42.945Z,13.00
2022-11-03T23:59:49.163Z,12.50
